createdAt,value
2023-04-15T00:00:56.468Z,975.5
2023-04-15T00:02:58.159Z,975.4
2023-04-15T00:07:00.972Z,975.3
2023-04-15T00:11:03.437Z,975.3
2023-04-15T00:13:05.415Z,975.3
2023-04-15T00:17:07.823Z,975.3
2023-04-15T00:19:09.180Z,975.4
2023-04-15T00:23:11.728Z,975.2
2023-04-15T00:27:14.683Z,975.3
2023-04-15T00:29:15.902Z,975.4
2023-04-15T00:33:18.780Z,975.3
2023-04-15T00:37:21.024Z,975.4
2023-04-15T00:39:22.601Z,975.3
2023-04-15T00:43:26.413Z,975.3
2023-04-15T00:45:27.855Z,975.3
2023-04-15T00:49:30.231Z,975.2
2023-04-15T00:53:32.853Z,975.2
2023-04-15T00:55:34.861Z,975.2
2023-04-15T00:59:37.726Z,975.2
2023-04-15T01:01:39.629Z,975.2
2023-04-15T01:05:42.889Z,975.3
2023-04-15T01:09:45.443Z,975.3
2023-04-15T01:11:47.148Z,975.2
2023-04-15T01:15:50.507Z,975.2
2023-04-15T01:19:53.927Z,975.2
2023-04-15T01:21:55.950Z,975.1
2023-04-15T01:25:59.604Z,975.1
2023-04-15T01:28:01.081Z,975.2
2023-04-15T01:32:04.108Z,975.1
2023-04-15T01:36:06.945Z,975.1
2023-04-15T01:38:08.873Z,975.1
2023-04-15T01:42:11.209Z,975.1
2023-04-15T01:44:12.542Z,975
2023-04-15T01:48:15.855Z,975.1
2023-04-15T01:52:19.076Z,975.1
2023-04-15T01:54:20.137Z,975
2023-04-15T01:58:23.245Z,974.9
2023-04-15T02:02:25.998Z,975
2023-04-15T02:04:27.378Z,974.9
2023-04-15T02:08:29.671Z,975.1
2023-04-15T02:10:31.156Z,975.1
2023-04-15T02:14:34.139Z,975
2023-04-15T02:18:37.401Z,974.9
2023-04-15T02:20:38.438Z,974.9
2023-04-15T02:24:40.873Z,974.9
2023-04-15T02:26:42.127Z,975
2023-04-15T02:30:45.058Z,974.9
2023-04-15T02:34:47.329Z,974.9
2023-04-15T02:36:48.873Z,974.9
2023-04-15T02:40:52.146Z,974.9
2023-04-15T02:44:55.060Z,974.9
2023-04-15T02:46:56.966Z,974.9
2023-04-15T02:50:59.910Z,974.9
2023-04-15T02:53:01.858Z,974.8
2023-04-15T02:55:02.934Z,975
2023-04-15T02:57:04.665Z,975
2023-04-15T03:01:07.481Z,974.9
2023-04-15T03:03:09.515Z,974.9
2023-04-15T03:05:11.086Z,974.9
2023-04-15T03:07:12.430Z,975
2023-04-15T03:09:14.329Z,974.9
2023-04-15T03:13:16.689Z,975.1
2023-04-15T03:15:18.522Z,975
2023-04-15T03:17:19.547Z,974.9
2023-04-15T03:19:20.575Z,974.9
2023-04-15T03:23:23.273Z,974.9
2023-04-15T03:25:24.370Z,974.9
2023-04-15T03:29:27.636Z,975
2023-04-15T03:33:30.158Z,975
2023-04-15T03:35:31.774Z,974.9
2023-04-15T03:39:35.312Z,974.9
2023-04-15T03:43:38.199Z,974.9
2023-04-15T03:45:40.008Z,974.9
2023-04-15T03:49:43.088Z,975
2023-04-15T03:51:44.546Z,974.9
2023-04-15T03:55:46.764Z,974.9
2023-04-15T03:59:49.846Z,974.9
2023-04-15T04:01:51.523Z,974.9
2023-04-15T04:05:54.294Z,974.9
2023-04-15T04:07:56.083Z,974.9
2023-04-15T04:11:58.720Z,975
2023-04-15T04:16:02.711Z,975.1
2023-04-15T04:18:04.029Z,974.9
2023-04-15T04:20:49.295Z,975
2023-04-15T04:22:51.239Z,974.9
2023-04-15T04:26:54.129Z,974.9
2023-04-15T04:28:55.472Z,975
2023-04-15T04:32:58.972Z,974.9
2023-04-15T04:37:01.859Z,974.9
2023-04-15T04:39:03.293Z,974.9
2023-04-15T04:43:05.914Z,974.9
2023-04-15T04:45:07.553Z,975
2023-04-15T04:49:09.873Z,974.9
2023-04-15T04:53:12.500Z,974.9
2023-04-15T04:55:13.881Z,975
2023-04-15T04:59:18.384Z,975
2023-04-15T05:03:20.636Z,975
2023-04-15T05:05:21.719Z,974.9
2023-04-15T05:09:24.272Z,975
2023-04-15T05:11:25.668Z,975
2023-04-15T05:15:28.558Z,974.9
2023-04-15T05:19:31.862Z,974.9
2023-04-15T05:21:32.926Z,975
2023-04-15T05:23:34.098Z,975
2023-04-15T05:25:35.452Z,975
2023-04-15T05:27:36.979Z,975
2023-04-15T05:31:39.859Z,975
2023-04-15T05:35:42.658Z,974.9
2023-04-15T05:37:44.425Z,975
2023-04-15T05:41:47.974Z,975
2023-04-15T05:47:51.986Z,975
2023-04-15T05:51:55.770Z,975.1
2023-04-15T05:53:56.975Z,975.1
2023-04-15T05:58:00.039Z,975.1
2023-04-15T06:02:03.322Z,975.1
2023-04-15T06:04:05.020Z,975.1
2023-04-15T06:06:06.152Z,975.1
2023-04-15T06:08:07.999Z,975
2023-04-15T06:10:09.261Z,975
2023-04-15T06:14:12.319Z,975
2023-04-15T06:16:13.483Z,975.1
2023-04-15T06:18:15.189Z,975.1
2023-04-15T06:20:16.789Z,975.1
2023-04-15T06:24:19.374Z,975.1
2023-04-15T06:26:21.117Z,975.1
2023-04-15T06:30:24.512Z,975.1
2023-04-15T06:34:26.771Z,975.2
2023-04-15T06:36:28.660Z,975.2
2023-04-15T06:40:32.174Z,975.2
2023-04-15T06:44:34.611Z,975.2
2023-04-15T06:46:36.401Z,975.2
2023-04-15T06:50:39.311Z,975.3
2023-04-15T06:52:40.384Z,975.2
2023-04-15T06:56:43.307Z,975.2
2023-04-15T07:00:46.513Z,975.2
2023-04-15T07:02:47.568Z,975.3
2023-04-15T07:06:49.909Z,975.2
2023-04-15T07:08:51.320Z,975.3
2023-04-15T07:12:53.804Z,975.2
2023-04-15T07:16:56.525Z,975.2
2023-04-15T07:18:58.225Z,975.2
2023-04-15T07:23:01.036Z,975.3
2023-04-15T07:27:04.239Z,975.3
2023-04-15T07:29:05.884Z,975.3
2023-04-15T07:33:08.602Z,975.2
2023-04-15T07:35:09.664Z,975.2
2023-04-15T07:39:11.881Z,975.3
2023-04-15T07:43:14.481Z,975.3
2023-04-15T07:45:15.668Z,975.3
2023-04-15T07:49:18.516Z,975.3
2023-04-15T07:51:20.188Z,975.3
2023-04-15T07:55:22.168Z,975.3
2023-04-15T07:59:25.717Z,975.2
2023-04-15T08:01:27.345Z,975.3
2023-04-15T08:05:30.094Z,975.2
2023-04-15T08:11:34.295Z,975.2
2023-04-15T08:15:36.635Z,975.1
2023-04-15T08:17:38.370Z,975.1
2023-04-15T08:19:39.514Z,975.1
2023-04-15T08:21:41.295Z,975.2
2023-04-15T08:25:43.613Z,975.2
2023-04-15T08:27:44.520Z,975.1
2023-04-15T08:31:47.500Z,975.2
2023-04-15T08:33:49.155Z,975.2
2023-04-15T08:37:52.102Z,975.2
2023-04-15T08:39:53.180Z,975.3
2023-04-15T08:41:54.266Z,975.1
2023-04-15T08:43:55.194Z,975.3
2023-04-15T08:47:58.230Z,975.3
2023-04-15T08:49:59.443Z,975.1
2023-04-15T08:54:02.578Z,975.3
2023-04-15T08:58:05.972Z,975.4
2023-04-15T09:00:07.093Z,975.3
2023-04-15T09:04:09.875Z,975.1
2023-04-15T09:08:13.292Z,975.3
2023-04-15T09:10:15.574Z,975.2
2023-04-15T09:14:18.837Z,975.2
2023-04-15T09:16:19.718Z,975.1
2023-04-15T09:20:22.054Z,975.2
2023-04-15T09:24:24.382Z,975.3
2023-04-15T09:26:25.394Z,975.3
2023-04-15T09:30:29.081Z,975.3
2023-04-15T09:32:30.902Z,975.3
2023-04-15T09:36:34.632Z,975.3
2023-04-15T09:40:37.174Z,975.4
2023-04-15T09:42:38.138Z,975.4
2023-04-15T09:46:40.752Z,975.4
2023-04-15T09:50:43.513Z,975.4
2023-04-15T09:52:44.639Z,975.4
2023-04-15T09:56:47.652Z,975.4
2023-04-15T09:58:48.805Z,975.5
2023-04-15T10:02:50.931Z,975.4
2023-04-15T10:06:54.397Z,975.3
2023-04-15T10:08:56.803Z,975.3
2023-04-15T10:12:59.359Z,975.4
2023-04-15T10:15:01.181Z,975.4
2023-04-15T10:19:04.361Z,975.4
2023-04-15T10:23:09.067Z,975.4
2023-04-15T10:25:09.057Z,975.4
2023-04-15T10:29:12.294Z,975.4
2023-04-15T10:33:14.694Z,975.4
2023-04-15T10:35:16.095Z,975.4
2023-04-15T10:39:19.122Z,975.7
2023-04-15T10:41:21.518Z,975.6
2023-04-15T10:45:23.317Z,975.8
2023-04-15T10:49:26.230Z,975.8
2023-04-15T10:51:27.932Z,975.8
2023-04-15T10:55:30.117Z,975.7
2023-04-15T10:57:31.427Z,975.8
2023-04-15T11:01:34.567Z,975.9
2023-04-15T11:05:37.860Z,975.8
2023-04-15T11:10:25.075Z,976
2023-04-15T11:12:26.583Z,976.1
2023-04-15T11:16:28.837Z,976.1
2023-04-15T11:18:30.652Z,976
2023-04-15T11:20:32.452Z,976
2023-04-15T11:22:33.427Z,976
2023-04-15T11:26:36.165Z,976.1
2023-04-15T11:28:38.879Z,976.1
2023-04-15T11:30:38.925Z,976
2023-04-15T11:32:40.721Z,976.1
2023-04-15T11:34:42.215Z,976.2
2023-04-15T11:38:44.824Z,976.2
2023-04-15T11:40:47.299Z,976
2023-04-15T11:42:49.793Z,976.2
2023-04-15T11:44:48.598Z,976.2
2023-04-15T11:48:51.177Z,976.3
2023-04-15T11:50:52.882Z,976.2
2023-04-15T11:54:54.730Z,976.2
2023-04-15T11:58:58.252Z,976.5
2023-04-15T12:01:00.161Z,976.3
2023-04-15T12:05:02.898Z,976.5
2023-04-15T12:09:05.166Z,976.5
2023-04-15T12:11:06.392Z,976.6
2023-04-15T12:15:09.289Z,976.6
2023-04-15T12:17:10.475Z,976.6
2023-04-15T12:21:13.353Z,976.7
2023-04-15T12:25:16.029Z,976.8
2023-04-15T12:27:17.100Z,976.8
2023-04-15T12:31:19.820Z,977
2023-04-15T12:33:21.156Z,976.9
2023-04-15T12:37:23.927Z,977
2023-04-15T12:41:26.501Z,977
2023-04-15T12:43:28.346Z,977.1
2023-04-15T12:47:30.401Z,977.1
2023-04-15T12:51:32.607Z,977.2
2023-04-15T12:53:33.583Z,977.2
2023-04-15T12:57:36.247Z,977.1
2023-04-15T12:59:37.307Z,977.3
2023-04-15T13:01:38.752Z,977.1
2023-04-15T13:03:39.992Z,977.2
2023-04-15T13:07:43.084Z,977.1
2023-04-15T13:09:44.318Z,977.2
2023-04-15T13:11:46.173Z,977.2
2023-04-15T13:13:47.341Z,977.3
2023-04-15T13:15:48.641Z,977.2
2023-04-15T13:19:51.384Z,977.3
2023-04-15T13:23:53.497Z,977.3
2023-04-15T13:25:54.497Z,977.4
2023-04-15T13:29:57.225Z,977.5
2023-04-15T13:31:58.164Z,977.6
2023-04-15T13:36:01.076Z,977.5
2023-04-15T13:40:03.741Z,977.7
2023-04-15T13:42:05.473Z,977.6
2023-04-15T13:46:08.213Z,977.7
2023-04-15T13:50:10.370Z,977.7
2023-04-15T13:52:11.971Z,977.7
2023-04-15T13:56:15.429Z,977.8
2023-04-15T13:58:16.929Z,977.8
2023-04-15T14:02:19.762Z,977.9
2023-04-15T14:06:22.067Z,977.9
2023-04-15T14:08:23.991Z,977.9
2023-04-15T14:12:27.260Z,978
2023-04-15T14:14:28.274Z,978
2023-04-15T14:18:30.445Z,978
2023-04-15T14:22:33.103Z,978
2023-04-15T14:24:34.329Z,978.1
2023-04-15T14:28:37.807Z,978.2
2023-04-15T14:32:40.919Z,978.2
2023-04-15T14:34:42.222Z,978.2
2023-04-15T14:38:45.439Z,978.3
2023-04-15T14:40:46.075Z,978.3
2023-04-15T14:44:48.322Z,978.3
2023-04-15T14:46:49.350Z,978.4
2023-04-15T14:50:52.175Z,978.4
2023-04-15T14:54:55.307Z,978.3
2023-04-15T14:56:56.913Z,978.4
2023-04-15T15:01:00.153Z,978.4
2023-04-15T15:07:04.157Z,978.5
2023-04-15T15:11:06.871Z,978.5
2023-04-15T15:13:08.614Z,978.5
2023-04-15T15:17:12.145Z,978.7
2023-04-15T15:21:15.277Z,978.7
2023-04-15T15:23:16.854Z,978.7
2023-04-15T15:27:19.832Z,978.7
2023-04-15T15:29:21.423Z,978.8
2023-04-15T15:33:24.191Z,978.8
2023-04-15T15:35:25.900Z,978.8
2023-04-15T15:37:27.094Z,978.8
2023-04-15T15:39:28.160Z,978.9
2023-04-15T15:43:30.928Z,978.9
2023-04-15T15:45:32.471Z,978.9
2023-04-15T15:49:35.061Z,978.9
2023-04-15T15:53:38.415Z,978.9
2023-04-15T15:55:40.165Z,978.9
2023-04-15T15:59:42.475Z,979
2023-04-15T16:03:45.260Z,979.1
2023-04-15T16:05:46.780Z,979
2023-04-15T16:09:50.481Z,979.1
2023-04-15T16:11:51.940Z,979.1
2023-04-15T16:15:54.263Z,979.1
2023-04-15T16:19:59.314Z,979.2
2023-04-15T16:21:58.788Z,979.2
2023-04-15T16:26:02.411Z,979.2
2023-04-15T16:28:11.704Z,979.3
2023-04-15T16:32:06.766Z,979.2
2023-04-15T16:36:10.060Z,979.3
2023-04-15T16:38:11.114Z,979.4
2023-04-15T16:42:14.272Z,979.4
2023-04-15T16:44:15.854Z,979.4
2023-04-15T16:48:17.880Z,979.6
2023-04-15T16:52:20.511Z,979.5
2023-04-15T16:54:21.423Z,979.5
2023-04-15T16:58:24.027Z,979.6
2023-04-15T17:02:27.408Z,979.6
2023-04-15T17:04:28.919Z,979.7
2023-04-15T17:08:32.544Z,979.8
2023-04-15T17:10:34.078Z,979.6
2023-04-15T17:14:45.074Z,979.7
2023-04-15T17:18:39.923Z,979.8
2023-04-15T17:20:41.176Z,979.8
2023-04-15T17:24:44.383Z,979.9
2023-04-15T17:28:48.001Z,980
2023-04-15T17:30:49.332Z,979.9
2023-04-15T17:34:52.193Z,980
2023-04-15T17:36:53.727Z,980
2023-04-15T17:40:56.783Z,980
2023-04-15T17:44:59.418Z,980
2023-04-15T17:47:09.094Z,980.1
2023-04-15T17:51:03.655Z,980.1
2023-04-15T17:55:50.654Z,980.2
2023-04-15T17:57:52.232Z,980.3
2023-04-15T18:01:55.389Z,980.3
2023-04-15T18:07:59.032Z,980.4
2023-04-15T18:12:02.131Z,980.4
2023-04-15T18:14:03.337Z,980.5
2023-04-15T18:18:05.453Z,980.5
2023-04-15T18:22:08.429Z,980.6
2023-04-15T18:24:10.250Z,980.6
2023-04-15T18:28:12.808Z,980.7
2023-04-15T18:30:13.811Z,980.7
2023-04-15T18:34:16.718Z,980.8
2023-04-15T18:38:20.033Z,980.8
2023-04-15T18:40:21.248Z,980.8
2023-04-15T18:44:23.975Z,980.9
2023-04-15T18:46:25.586Z,980.9
2023-04-15T18:50:28.261Z,981
2023-04-15T18:54:41.091Z,981
2023-04-15T18:56:32.531Z,981
2023-04-15T19:00:34.977Z,981.2
2023-04-15T19:04:37.992Z,981.2
2023-04-15T19:06:39.726Z,981.3
2023-04-15T19:10:43.503Z,981.3
2023-04-15T19:12:44.612Z,981.3
2023-04-15T19:16:48.384Z,981.4
2023-04-15T19:20:50.956Z,981.4
2023-04-15T19:22:52.505Z,981.5
2023-04-15T19:26:55.116Z,981.4
2023-04-15T19:28:56.733Z,981.4
2023-04-15T19:32:59.396Z,981.5
2023-04-15T19:37:02.747Z,981.5
2023-04-15T19:39:04.251Z,981.6
2023-04-15T19:43:07.605Z,981.6
2023-04-15T19:47:10.479Z,981.5
2023-04-15T19:49:11.471Z,981.6
2023-04-15T19:53:14.065Z,981.6
2023-04-15T19:55:15.797Z,981.5
2023-04-15T19:59:18.955Z,981.6
2023-04-15T20:03:22.141Z,981.5
2023-04-15T20:05:22.947Z,981.6
2023-04-15T20:09:25.914Z,981.7
2023-04-15T20:11:27.210Z,981.6
2023-04-15T20:15:30.287Z,981.7
2023-04-15T20:19:32.772Z,981.6
2023-04-15T20:21:34.540Z,981.6
2023-04-15T20:25:36.594Z,981.7
2023-04-15T20:31:40.589Z,981.7
2023-04-15T20:35:42.935Z,981.7
2023-04-15T20:37:43.962Z,981.7
2023-04-15T20:41:46.475Z,981.8
2023-04-15T20:45:49.211Z,981.9
2023-04-15T20:47:51.020Z,981.8
2023-04-15T20:51:53.876Z,981.8
2023-04-15T20:53:55.120Z,981.8
2023-04-15T20:57:58.495Z,981.8
2023-04-15T21:02:01.893Z,981.9
2023-04-15T21:04:03.378Z,981.9
2023-04-15T21:08:05.706Z,982
2023-04-15T21:10:06.742Z,982
2023-04-15T21:14:09.493Z,982
2023-04-15T21:18:11.737Z,982
2023-04-15T21:20:12.894Z,982
2023-04-15T21:24:16.295Z,982
2023-04-15T21:28:19.023Z,982.1
2023-04-15T21:30:20.356Z,982.1
2023-04-15T21:34:23.139Z,982.3
2023-04-15T21:36:24.339Z,982.2
2023-04-15T21:40:27.819Z,982.2
2023-04-15T21:44:30.767Z,982.3
2023-04-15T21:46:33.102Z,982.3
2023-04-15T21:50:35.341Z,982.4
2023-04-15T21:52:36.427Z,982.4
2023-04-15T21:56:39.274Z,982.4
2023-04-15T22:00:42.552Z,982.3
2023-04-15T22:02:44.073Z,982.3
2023-04-15T22:06:47.210Z,982.4
2023-04-15T22:10:58.715Z,982.4
2023-04-15T22:12:52.012Z,982.4
2023-04-15T22:16:55.023Z,982.4
2023-04-15T22:18:56.669Z,982.4
2023-04-15T22:22:59.669Z,982.5
2023-04-15T22:27:02.816Z,982.5
2023-04-15T22:29:05.027Z,982.6
2023-04-15T22:33:07.867Z,982.6
2023-04-15T22:35:09.272Z,982.7
2023-04-15T22:39:11.793Z,982.7
2023-04-15T22:43:15.233Z,982.6
2023-04-15T22:45:16.818Z,982.7
2023-04-15T22:49:19.834Z,982.8
2023-04-15T22:53:23.071Z,982.7
2023-04-15T22:55:24.091Z,982.7
2023-04-15T22:59:26.478Z,982.8
2023-04-15T23:01:28.297Z,982.8
2023-04-15T23:03:29.435Z,982.8
2023-04-15T23:05:30.916Z,982.8
2023-04-15T23:09:33.893Z,982.8
2023-04-15T23:11:35.818Z,982.8
2023-04-15T23:13:36.797Z,982.8
2023-04-15T23:15:38.111Z,982.8
2023-04-15T23:17:39.954Z,982.8
2023-04-15T23:21:42.758Z,982.7
2023-04-15T23:23:43.861Z,982.8
2023-04-15T23:25:45.058Z,982.8
2023-04-15T23:27:46.672Z,982.8
2023-04-15T23:31:50.187Z,982.9
2023-04-15T23:33:51.789Z,982.9
2023-04-15T23:37:55.134Z,982.8
2023-04-15T23:41:57.686Z,982.9
2023-04-15T23:43:59.579Z,982.9
2023-04-15T23:48:02.378Z,982.9
2023-04-15T23:52:05.127Z,982.9
2023-04-15T23:54:06.682Z,982.9
2023-04-15T23:58:09.279Z,982.9
